sensor_id;sensor_type;location;lat;lon;timestamp;temperature;humidity
6810;DHT22;3443;48.812;9.112;2022-10-31T00:01:14;12.00;99.90
6810;DHT22;3443;48.812;9.112;2022-10-31T00:03:39;12.00;99.90
6810;DHT22;3443;48.812;9.112;2022-10-31T00:06:05;11.90;99.90
6810;DHT22;3443;48.812;9.112;2022-10-31T00:08:31;11.90;99.90
6810;DHT22;3443;48.812;9.112;2022-10-31T00:10:56;11.90;99.90
6810;DHT22;3443;48.812;9.112;2022-10-31T00:13:22;11.90;99.90
6810;DHT22;3443;48.812;9.112;2022-10-31T00:15:47;11.80;99.90
6810;DHT22;3443;48.812;9.112;2022-10-31T00:18:13;11.80;99.90
6810;DHT22;3443;48.812;9.112;2022-10-31T00:20:39;11.90;99.90
6810;DHT22;3443;48.812;9.112;2022-10-31T00:23:05;11.90;99.90
6810;DHT22;3443;48.812;9.112;2022-10-31T00:25:37;11.80;99.90
6810;DHT22;3443;48.812;9.112;2022-10-31T00:28:04;11.80;99.90
6810;DHT22;3443;48.812;9.112;2022-10-31T00:30:30;11.80;99.90
6810;DHT22;3443;48.812;9.112;2022-10-31T00:32:55;11.70;99.90
6810;DHT22;3443;48.812;9.112;2022-10-31T00:35:21;11.70;99.90
6810;DHT22;3443;48.812;9.112;2022-10-31T00:37:47;11.60;99.90
6810;DHT22;3443;48.812;9.112;2022-10-31T00:40:12;11.60;99.90
6810;DHT22;3443;48.812;9.112;2022-10-31T00:42:39;11.60;99.90
6810;DHT22;3443;48.812;9.112;2022-10-31T00:45:10;11.60;99.90
6810;DHT22;3443;48.812;9.112;2022-10-31T00:47:36;11.60;99.90
6810;DHT22;3443;48.812;9.112;2022-10-31T00:50:03;11.60;99.90
6810;DHT22;3443;48.812;9.112;2022-10-31T00:52:28;11.60;99.90
6810;DHT22;3443;48.812;9.112;2022-10-31T00:54:54;11.50;99.90
6810;DHT22;3443;48.812;9.112;2022-10-31T00:57:19;11.50;99.90
6810;DHT22;3443;48.812;9.112;2022-10-31T00:59:45;11.50;99.90
6810;DHT22;3443;48.812;9.112;2022-10-31T01:02:10;11.50;99.90
6810;DHT22;3443;48.812;9.112;2022-10-31T01:04:36;11.50;99.90
6810;DHT22;3443;48.812;9.112;2022-10-31T01:07:01;11.50;99.90
6810;DHT22;3443;48.812;9.112;2022-10-31T01:09:27;11.60;99.90
6810;DHT22;3443;48.812;9.112;2022-10-31T01:11:52;11.50;99.90
6810;DHT22;3443;48.812;9.112;2022-10-31T01:14:18;11.50;99.90
6810;DHT22;3443;48.812;9.112;2022-10-31T01:16:44;11.50;99.90
6810;DHT22;3443;48.812;9.112;2022-10-31T01:19:09;11.40;99.90
6810;DHT22;3443;48.812;9.112;2022-10-31T01:21:35;11.40;99.90
6810;DHT22;3443;48.812;9.112;2022-10-31T01:24:00;11.40;99.90
6810;DHT22;3443;48.812;9.112;2022-10-31T01:26:30;11.50;99.90
6810;DHT22;3443;48.812;9.112;2022-10-31T01:31:23;11.40;99.90
6810;DHT22;3443;48.812;9.112;2022-10-31T01:33:50;11.30;99.90
6810;DHT22;3443;48.812;9.112;2022-10-31T01:36:21;11.30;99.90
6810;DHT22;3443;48.812;9.112;2022-10-31T01:38:47;11.30;99.90
6810;DHT22;3443;48.812;9.112;2022-10-31T01:41:16;11.30;99.90
6810;DHT22;3443;48.812;9.112;2022-10-31T01:43:49;11.30;99.90
6810;DHT22;3443;48.812;9.112;2022-10-31T01:46:19;11.20;99.90
6810;DHT22;3443;48.812;9.112;2022-10-31T01:48:46;11.30;99.90
6810;DHT22;3443;48.812;9.112;2022-10-31T01:51:14;11.20;99.90
6810;DHT22;3443;48.812;9.112;2022-10-31T01:53:42;11.20;99.90
6810;DHT22;3443;48.812;9.112;2022-10-31T01:56:08;11.20;99.90
6810;DHT22;3443;48.812;9.112;2022-10-31T01:58:35;11.20;99.90
6810;DHT22;3443;48.812;9.112;2022-10-31T02:01:01;11.30;99.90
6810;DHT22;3443;48.812;9.112;2022-10-31T02:03:28;11.30;99.90
6810;DHT22;3443;48.812;9.112;2022-10-31T02:05:55;11.20;99.90
6810;DHT22;3443;48.812;9.112;2022-10-31T02:08:29;11.20;99.90
6810;DHT22;3443;48.812;9.112;2022-10-31T02:10:57;11.20;99.90
6810;DHT22;3443;48.812;9.112;2022-10-31T02:13:23;11.20;99.90
6810;DHT22;3443;48.812;9.112;2022-10-31T02:15:52;11.20;99.90
6810;DHT22;3443;48.812;9.112;2022-10-31T02:18:18;11.10;99.90
6810;DHT22;3443;48.812;9.112;2022-10-31T02:26:40;11.10;99.90
6810;DHT22;3443;48.812;9.112;2022-10-31T02:32:02;11.10;99.90
6810;DHT22;3443;48.812;9.112;2022-10-31T02:34:45;11.00;99.90
6810;DHT22;3443;48.812;9.112;2022-10-31T02:37:29;11.00;99.90
6810;DHT22;3443;48.812;9.112;2022-10-31T02:40:09;11.00;99.90
6810;DHT22;3443;48.812;9.112;2022-10-31T02:46:00;10.90;99.90
6810;DHT22;3443;48.812;9.112;2022-10-31T02:48:27;10.90;99.90
6810;DHT22;3443;48.812;9.112;2022-10-31T02:50:56;10.90;99.90
6810;DHT22;3443;48.812;9.112;2022-10-31T02:53:23;10.90;99.90
6810;DHT22;3443;48.812;9.112;2022-10-31T02:55:50;10.80;99.90
6810;DHT22;3443;48.812;9.112;2022-10-31T02:58:22;10.80;99.90
6810;DHT22;3443;48.812;9.112;2022-10-31T03:01:10;10.80;99.90
6810;DHT22;3443;48.812;9.112;2022-10-31T03:06:17;10.80;99.90
6810;DHT22;3443;48.812;9.112;2022-10-31T03:09:22;10.80;99.90
6810;DHT22;3443;48.812;9.112;2022-10-31T03:12:07;10.80;99.90
6810;DHT22;3443;48.812;9.112;2022-10-31T03:14:39;10.70;99.90
6810;DHT22;3443;48.812;9.112;2022-10-31T03:17:08;10.70;99.90
6810;DHT22;3443;48.812;9.112;2022-10-31T03:19:42;10.70;99.90
6810;DHT22;3443;48.812;9.112;2022-10-31T03:22:17;10.70;99.90
6810;DHT22;3443;48.812;9.112;2022-10-31T03:24:46;10.70;99.90
6810;DHT22;3443;48.812;9.112;2022-10-31T03:27:16;10.70;99.90
6810;DHT22;3443;48.812;9.112;2022-10-31T03:29:44;10.60;99.90
6810;DHT22;3443;48.812;9.112;2022-10-31T03:32:16;10.70;99.90
6810;DHT22;3443;48.812;9.112;2022-10-31T03:34:44;10.60;99.90
6810;DHT22;3443;48.812;9.112;2022-10-31T03:37:14;10.60;99.90
6810;DHT22;3443;48.812;9.112;2022-10-31T03:39:43;10.60;99.90
6810;DHT22;3443;48.812;9.112;2022-10-31T03:42:16;10.60;99.90
6810;DHT22;3443;48.812;9.112;2022-10-31T03:44:46;10.50;99.90
6810;DHT22;3443;48.812;9.112;2022-10-31T03:47:15;10.50;99.90
6810;DHT22;3443;48.812;9.112;2022-10-31T03:49:41;10.50;99.90
6810;DHT22;3443;48.812;9.112;2022-10-31T03:52:41;10.50;99.90
6810;DHT22;3443;48.812;9.112;2022-10-31T03:55:26;10.50;99.90
6810;DHT22;3443;48.812;9.112;2022-10-31T03:57:59;10.50;99.90
6810;DHT22;3443;48.812;9.112;2022-10-31T04:00:25;10.50;99.90
6810;DHT22;3443;48.812;9.112;2022-10-31T04:03:14;10.50;99.90
6810;DHT22;3443;48.812;9.112;2022-10-31T04:05:38;10.50;99.90
6810;DHT22;3443;48.812;9.112;2022-10-31T04:08:08;10.50;99.90
6810;DHT22;3443;48.812;9.112;2022-10-31T04:10:37;10.50;99.90
6810;DHT22;3443;48.812;9.112;2022-10-31T04:13:09;10.50;99.90
6810;DHT22;3443;48.812;9.112;2022-10-31T04:15:36;10.50;99.90
6810;DHT22;3443;48.812;9.112;2022-10-31T04:18:04;10.50;99.90
6810;DHT22;3443;48.812;9.112;2022-10-31T04:20:35;10.40;99.90
6810;DHT22;3443;48.812;9.112;2022-10-31T04:23:02;10.40;99.90
6810;DHT22;3443;48.812;9.112;2022-10-31T04:25:28;10.40;99.90
6810;DHT22;3443;48.812;9.112;2022-10-31T04:27:53;10.40;99.90
6810;DHT22;3443;48.812;9.112;2022-10-31T04:30:19;10.40;99.90
6810;DHT22;3443;48.812;9.112;2022-10-31T04:32:45;10.40;99.90
6810;DHT22;3443;48.812;9.112;2022-10-31T04:35:10;10.30;99.90
6810;DHT22;3443;48.812;9.112;2022-10-31T04:37:36;10.40;99.90
6810;DHT22;3443;48.812;9.112;2022-10-31T04:40:02;10.40;99.90
6810;DHT22;3443;48.812;9.112;2022-10-31T04:42:31;10.30;99.90
6810;DHT22;3443;48.812;9.112;2022-10-31T04:44:57;10.30;99.90
6810;DHT22;3443;48.812;9.112;2022-10-31T04:47:22;10.30;99.90
6810;DHT22;3443;48.812;9.112;2022-10-31T04:49:48;10.20;99.90
6810;DHT22;3443;48.812;9.112;2022-10-31T04:52:13;10.20;99.90
6810;DHT22;3443;48.812;9.112;2022-10-31T04:54:39;10.10;99.90
6810;DHT22;3443;48.812;9.112;2022-10-31T04:57:05;10.10;99.90
6810;DHT22;3443;48.812;9.112;2022-10-31T04:59:30;10.10;99.90
6810;DHT22;3443;48.812;9.112;2022-10-31T05:01:56;10.10;99.90
6810;DHT22;3443;48.812;9.112;2022-10-31T05:04:21;10.10;99.90
6810;DHT22;3443;48.812;9.112;2022-10-31T05:06:47;10.10;99.90
6810;DHT22;3443;48.812;9.112;2022-10-31T05:09:13;10.10;99.90
6810;DHT22;3443;48.812;9.112;2022-10-31T05:11:38;10.10;99.90
6810;DHT22;3443;48.812;9.112;2022-10-31T05:14:04;10.00;99.90
6810;DHT22;3443;48.812;9.112;2022-10-31T05:16:29;10.00;99.90
6810;DHT22;3443;48.812;9.112;2022-10-31T05:18:55;10.00;99.90
6810;DHT22;3443;48.812;9.112;2022-10-31T05:21:21;10.00;99.90
6810;DHT22;3443;48.812;9.112;2022-10-31T05:23:46;10.00;99.90
6810;DHT22;3443;48.812;9.112;2022-10-31T05:26:12;10.00;99.90
6810;DHT22;3443;48.812;9.112;2022-10-31T05:28:37;10.00;99.90
6810;DHT22;3443;48.812;9.112;2022-10-31T05:31:03;9.90;99.90
6810;DHT22;3443;48.812;9.112;2022-10-31T05:33:29;9.90;99.90
6810;DHT22;3443;48.812;9.112;2022-10-31T05:35:54;9.90;99.90
6810;DHT22;3443;48.812;9.112;2022-10-31T05:38:20;9.90;99.90
6810;DHT22;3443;48.812;9.112;2022-10-31T05:40:45;9.90;99.90
6810;DHT22;3443;48.812;9.112;2022-10-31T05:43:11;9.90;99.90
6810;DHT22;3443;48.812;9.112;2022-10-31T05:45:36;9.80;99.90
6810;DHT22;3443;48.812;9.112;2022-10-31T05:48:02;9.80;99.90
6810;DHT22;3443;48.812;9.112;2022-10-31T05:50:30;9.80;99.90
6810;DHT22;3443;48.812;9.112;2022-10-31T05:53:04;9.80;99.90
6810;DHT22;3443;48.812;9.112;2022-10-31T05:55:30;9.80;99.90
6810;DHT22;3443;48.812;9.112;2022-10-31T05:57:56;9.80;99.90
6810;DHT22;3443;48.812;9.112;2022-10-31T06:00:23;9.80;99.90
6810;DHT22;3443;48.812;9.112;2022-10-31T06:02:49;9.80;99.90
6810;DHT22;3443;48.812;9.112;2022-10-31T06:05:14;9.80;99.90
6810;DHT22;3443;48.812;9.112;2022-10-31T06:07:41;9.80;99.90
6810;DHT22;3443;48.812;9.112;2022-10-31T06:10:08;9.80;99.90
6810;DHT22;3443;48.812;9.112;2022-10-31T06:12:35;9.80;99.90
6810;DHT22;3443;48.812;9.112;2022-10-31T06:15:05;9.70;99.90
6810;DHT22;3443;48.812;9.112;2022-10-31T06:17:31;9.70;99.90
6810;DHT22;3443;48.812;9.112;2022-10-31T06:19:57;9.70;99.90
6810;DHT22;3443;48.812;9.112;2022-10-31T06:22:22;9.70;99.90
6810;DHT22;3443;48.812;9.112;2022-10-31T06:24:48;9.70;99.90
6810;DHT22;3443;48.812;9.112;2022-10-31T06:27:13;9.70;99.90
6810;DHT22;3443;48.812;9.112;2022-10-31T06:29:39;9.70;99.90
6810;DHT22;3443;48.812;9.112;2022-10-31T06:32:04;9.60;99.90
6810;DHT22;3443;48.812;9.112;2022-10-31T06:34:30;9.70;99.90
6810;DHT22;3443;48.812;9.112;2022-10-31T06:36:56;9.70;99.90
6810;DHT22;3443;48.812;9.112;2022-10-31T06:39:21;9.70;99.90
6810;DHT22;3443;48.812;9.112;2022-10-31T06:41:47;9.80;99.90
6810;DHT22;3443;48.812;9.112;2022-10-31T06:44:13;9.80;99.90
6810;DHT22;3443;48.812;9.112;2022-10-31T06:46:39;9.80;99.90
6810;DHT22;3443;48.812;9.112;2022-10-31T06:49:04;9.80;99.90
6810;DHT22;3443;48.812;9.112;2022-10-31T06:51:30;9.80;99.90
6810;DHT22;3443;48.812;9.112;2022-10-31T06:53:55;9.90;99.90
6810;DHT22;3443;48.812;9.112;2022-10-31T06:56:21;9.70;99.90
6810;DHT22;3443;48.812;9.112;2022-10-31T06:58:46;9.90;99.90
6810;DHT22;3443;48.812;9.112;2022-10-31T07:01:12;9.90;99.90
6810;DHT22;3443;48.812;9.112;2022-10-31T07:03:38;10.00;99.90
6810;DHT22;3443;48.812;9.112;2022-10-31T07:06:03;10.00;99.90
6810;DHT22;3443;48.812;9.112;2022-10-31T07:08:29;10.00;99.90
6810;DHT22;3443;48.812;9.112;2022-10-31T07:10:56;10.10;99.90
6810;DHT22;3443;48.812;9.112;2022-10-31T07:13:23;10.10;99.90
6810;DHT22;3443;48.812;9.112;2022-10-31T07:15:54;10.10;99.90
6810;DHT22;3443;48.812;9.112;2022-10-31T07:18:20;10.20;99.90
6810;DHT22;3443;48.812;9.112;2022-10-31T07:20:46;10.30;99.90
6810;DHT22;3443;48.812;9.112;2022-10-31T07:23:12;10.30;99.90
6810;DHT22;3443;48.812;9.112;2022-10-31T07:25:38;10.40;99.90
6810;DHT22;3443;48.812;9.112;2022-10-31T07:28:04;10.40;99.90
6810;DHT22;3443;48.812;9.112;2022-10-31T07:30:30;10.40;99.90
6810;DHT22;3443;48.812;9.112;2022-10-31T07:32:55;10.50;99.90
6810;DHT22;3443;48.812;9.112;2022-10-31T07:35:23;10.60;99.90
6810;DHT22;3443;48.812;9.112;2022-10-31T07:37:49;10.70;99.90
6810;DHT22;3443;48.812;9.112;2022-10-31T07:40:16;10.70;99.90
6810;DHT22;3443;48.812;9.112;2022-10-31T07:42:43;10.70;99.90
6810;DHT22;3443;48.812;9.112;2022-10-31T07:45:15;10.90;99.90
6810;DHT22;3443;48.812;9.112;2022-10-31T07:47:42;10.90;99.90
6810;DHT22;3443;48.812;9.112;2022-10-31T07:50:09;10.60;99.90
6810;DHT22;3443;48.812;9.112;2022-10-31T07:52:35;11.10;99.90
6810;DHT22;3443;48.812;9.112;2022-10-31T07:55:01;11.20;99.90
6810;DHT22;3443;48.812;9.112;2022-10-31T07:57:27;11.10;99.90
6810;DHT22;3443;48.812;9.112;2022-10-31T07:59:52;11.20;99.90
6810;DHT22;3443;48.812;9.112;2022-10-31T08:02:18;11.20;99.90
6810;DHT22;3443;48.812;9.112;2022-10-31T08:04:43;11.30;99.90
6810;DHT22;3443;48.812;9.112;2022-10-31T08:07:09;11.40;99.90
6810;DHT22;3443;48.812;9.112;2022-10-31T08:09:34;11.40;99.90
6810;DHT22;3443;48.812;9.112;2022-10-31T08:12:00;11.50;99.90
6810;DHT22;3443;48.812;9.112;2022-10-31T08:14:27;11.60;99.90
6810;DHT22;3443;48.812;9.112;2022-10-31T08:16:53;11.70;99.90
6810;DHT22;3443;48.812;9.112;2022-10-31T08:19:18;11.80;99.90
6810;DHT22;3443;48.812;9.112;2022-10-31T08:21:44;11.80;99.90
6810;DHT22;3443;48.812;9.112;2022-10-31T08:24:09;11.90;99.90
6810;DHT22;3443;48.812;9.112;2022-10-31T08:26:35;11.90;99.90
6810;DHT22;3443;48.812;9.112;2022-10-31T08:29:00;12.00;99.90
6810;DHT22;3443;48.812;9.112;2022-10-31T08:31:27;12.00;99.90
6810;DHT22;3443;48.812;9.112;2022-10-31T08:33:53;12.10;99.90
6810;DHT22;3443;48.812;9.112;2022-10-31T08:36:20;12.20;99.90
6810;DHT22;3443;48.812;9.112;2022-10-31T08:38:46;12.20;99.90
6810;DHT22;3443;48.812;9.112;2022-10-31T08:41:13;12.30;99.90
6810;DHT22;3443;48.812;9.112;2022-10-31T08:43:38;12.40;99.90
6810;DHT22;3443;48.812;9.112;2022-10-31T08:46:04;12.50;99.90
6810;DHT22;3443;48.812;9.112;2022-10-31T08:48:29;12.60;99.90
6810;DHT22;3443;48.812;9.112;2022-10-31T08:50:59;12.90;99.90
6810;DHT22;3443;48.812;9.112;2022-10-31T08:53:25;12.70;99.90
6810;DHT22;3443;48.812;9.112;2022-10-31T08:55:54;12.90;99.90
6810;DHT22;3443;48.812;9.112;2022-10-31T08:58:20;12.80;99.90
6810;DHT22;3443;48.812;9.112;2022-10-31T09:00:48;12.90;99.90
6810;DHT22;3443;48.812;9.112;2022-10-31T09:03:19;13.00;99.90
6810;DHT22;3443;48.812;9.112;2022-10-31T09:05:45;13.00;99.90
6810;DHT22;3443;48.812;9.112;2022-10-31T09:08:11;13.10;99.90
6810;DHT22;3443;48.812;9.112;2022-10-31T09:10:37;13.20;99.90
6810;DHT22;3443;48.812;9.112;2022-10-31T09:13:05;13.10;99.90
6810;DHT22;3443;48.812;9.112;2022-10-31T09:15:35;13.20;99.90
6810;DHT22;3443;48.812;9.112;2022-10-31T09:18:02;13.30;99.90
6810;DHT22;3443;48.812;9.112;2022-10-31T09:20:28;13.30;99.90
6810;DHT22;3443;48.812;9.112;2022-10-31T09:23:02;13.40;99.90
6810;DHT22;3443;48.812;9.112;2022-10-31T09:25:29;13.50;99.90
6810;DHT22;3443;48.812;9.112;2022-10-31T09:27:59;13.60;99.90
6810;DHT22;3443;48.812;9.112;2022-10-31T09:30:31;13.70;99.90
6810;DHT22;3443;48.812;9.112;2022-10-31T09:33:01;13.80;99.90
6810;DHT22;3443;48.812;9.112;2022-10-31T09:35:27;13.80;99.90
6810;DHT22;3443;48.812;9.112;2022-10-31T09:37:56;13.90;99.90
6810;DHT22;3443;48.812;9.112;2022-10-31T09:40:42;14.00;99.90
6810;DHT22;3443;48.812;9.112;2022-10-31T09:43:26;14.00;99.90
6810;DHT22;3443;48.812;9.112;2022-10-31T09:51:41;14.20;99.90
6810;DHT22;3443;48.812;9.112;2022-10-31T09:56:49;14.30;99.90
6810;DHT22;3443;48.812;9.112;2022-10-31T09:59:31;14.40;99.90
6810;DHT22;3443;48.812;9.112;2022-10-31T10:02:26;14.50;99.90
6810;DHT22;3443;48.812;9.112;2022-10-31T10:04:57;14.50;99.90
6810;DHT22;3443;48.812;9.112;2022-10-31T10:07:47;14.70;99.90
6810;DHT22;3443;48.812;9.112;2022-10-31T10:10:24;14.70;99.90
6810;DHT22;3443;48.812;9.112;2022-10-31T10:13:10;14.80;99.90
6810;DHT22;3443;48.812;9.112;2022-10-31T10:16:09;15.00;99.90
6810;DHT22;3443;48.812;9.112;2022-10-31T10:24:32;15.10;99.90
6810;DHT22;3443;48.812;9.112;2022-10-31T10:27:20;15.20;99.90
6810;DHT22;3443;48.812;9.112;2022-10-31T10:29:53;15.30;99.90
6810;DHT22;3443;48.812;9.112;2022-10-31T10:32:30;15.50;99.90
6810;DHT22;3443;48.812;9.112;2022-10-31T10:35:19;15.50;99.90
6810;DHT22;3443;48.812;9.112;2022-10-31T10:37:47;15.60;99.90
6810;DHT22;3443;48.812;9.112;2022-10-31T10:40:20;15.70;99.90
6810;DHT22;3443;48.812;9.112;2022-10-31T10:51:56;15.90;99.90
6810;DHT22;3443;48.812;9.112;2022-10-31T10:57:56;15.90;99.90
6810;DHT22;3443;48.812;9.112;2022-10-31T11:00:26;16.00;99.90
6810;DHT22;3443;48.812;9.112;2022-10-31T11:02:52;16.00;99.90
6810;DHT22;3443;48.812;9.112;2022-10-31T11:08:04;16.20;99.90
6810;DHT22;3443;48.812;9.112;2022-10-31T11:10:30;16.20;99.90
6810;DHT22;3443;48.812;9.112;2022-10-31T11:16:02;16.20;99.90
6810;DHT22;3443;48.812;9.112;2022-10-31T11:18:37;16.40;99.90
6810;DHT22;3443;48.812;9.112;2022-10-31T11:21:05;16.50;99.90
6810;DHT22;3443;48.812;9.112;2022-10-31T11:23:31;16.50;99.90
6810;DHT22;3443;48.812;9.112;2022-10-31T11:26:05;16.50;99.90
6810;DHT22;3443;48.812;9.112;2022-10-31T11:28:33;16.60;99.90
6810;DHT22;3443;48.812;9.112;2022-10-31T11:31:21;16.70;99.90
6810;DHT22;3443;48.812;9.112;2022-10-31T11:33:50;16.80;99.90
6810;DHT22;3443;48.812;9.112;2022-10-31T11:36:25;16.70;99.90
6810;DHT22;3443;48.812;9.112;2022-10-31T11:38:52;16.80;99.90
6810;DHT22;3443;48.812;9.112;2022-10-31T11:41:27;16.90;99.90
6810;DHT22;3443;48.812;9.112;2022-10-31T11:44:02;16.90;99.90
6810;DHT22;3443;48.812;9.112;2022-10-31T11:46:47;17.00;99.90
6810;DHT22;3443;48.812;9.112;2022-10-31T11:49:20;16.90;99.90
6810;DHT22;3443;48.812;9.112;2022-10-31T11:51:51;17.00;99.90
6810;DHT22;3443;48.812;9.112;2022-10-31T11:54:27;16.90;99.90
6810;DHT22;3443;48.812;9.112;2022-10-31T11:56:53;17.00;99.90
6810;DHT22;3443;48.812;9.112;2022-10-31T11:59:28;17.00;99.90
6810;DHT22;3443;48.812;9.112;2022-10-31T12:01:56;17.00;99.90
6810;DHT22;3443;48.812;9.112;2022-10-31T12:04:41;17.20;99.90
6810;DHT22;3443;48.812;9.112;2022-10-31T12:07:10;17.30;99.90
6810;DHT22;3443;48.812;9.112;2022-10-31T12:09:37;17.20;99.90
6810;DHT22;3443;48.812;9.112;2022-10-31T12:15:13;17.30;99.90
6810;DHT22;3443;48.812;9.112;2022-10-31T12:17:49;17.30;99.90
6810;DHT22;3443;48.812;9.112;2022-10-31T12:20:48;17.50;99.90
6810;DHT22;3443;48.812;9.112;2022-10-31T12:26:19;17.60;99.90
6810;DHT22;3443;48.812;9.112;2022-10-31T12:29:07;17.60;99.90
6810;DHT22;3443;48.812;9.112;2022-10-31T12:37:28;17.80;99.90
6810;DHT22;3443;48.812;9.112;2022-10-31T12:40:27;17.80;99.90
6810;DHT22;3443;48.812;9.112;2022-10-31T12:43:16;17.80;99.90
6810;DHT22;3443;48.812;9.112;2022-10-31T12:45:55;17.70;99.90
6810;DHT22;3443;48.812;9.112;2022-10-31T12:54:36;17.60;99.90
6810;DHT22;3443;48.812;9.112;2022-10-31T12:57:12;17.60;99.90
6810;DHT22;3443;48.812;9.112;2022-10-31T12:59:56;17.60;99.90
6810;DHT22;3443;48.812;9.112;2022-10-31T13:05:04;17.50;99.90
6810;DHT22;3443;48.812;9.112;2022-10-31T13:07:52;17.40;99.90
6810;DHT22;3443;48.812;9.112;2022-10-31T13:10:23;17.40;99.90
6810;DHT22;3443;48.812;9.112;2022-10-31T13:12:54;17.30;99.90
6810;DHT22;3443;48.812;9.112;2022-10-31T13:15:21;17.40;99.90
6810;DHT22;3443;48.812;9.112;2022-10-31T13:17:57;17.30;99.90
6810;DHT22;3443;48.812;9.112;2022-10-31T13:20:31;17.30;99.90
6810;DHT22;3443;48.812;9.112;2022-10-31T13:25:50;17.20;99.90
6810;DHT22;3443;48.812;9.112;2022-10-31T13:28:47;17.20;99.90
6810;DHT22;3443;48.812;9.112;2022-10-31T13:31:14;17.30;99.90
6810;DHT22;3443;48.812;9.112;2022-10-31T13:33:54;17.30;99.90
6810;DHT22;3443;48.812;9.112;2022-10-31T13:37:29;17.40;99.90
6810;DHT22;3443;48.812;9.112;2022-10-31T13:40:02;17.50;99.90
6810;DHT22;3443;48.812;9.112;2022-10-31T13:42:55;17.60;99.90
6810;DHT22;3443;48.812;9.112;2022-10-31T13:45:24;17.80;99.90
6810;DHT22;3443;48.812;9.112;2022-10-31T13:50:42;18.30;99.90
6810;DHT22;3443;48.812;9.112;2022-10-31T13:53:12;18.50;99.90
6810;DHT22;3443;48.812;9.112;2022-10-31T13:55:48;18.60;99.90
6810;DHT22;3443;48.812;9.112;2022-10-31T13:58:32;18.60;99.90
6810;DHT22;3443;48.812;9.112;2022-10-31T14:01:19;18.50;99.90
6810;DHT22;3443;48.812;9.112;2022-10-31T14:03:47;18.30;99.90
6810;DHT22;3443;48.812;9.112;2022-10-31T14:06:14;18.20;99.90
6810;DHT22;3443;48.812;9.112;2022-10-31T14:08:48;18.00;99.90
6810;DHT22;3443;48.812;9.112;2022-10-31T14:11:23;17.90;99.90
6810;DHT22;3443;48.812;9.112;2022-10-31T14:13:49;17.80;99.90
6810;DHT22;3443;48.812;9.112;2022-10-31T14:16:27;17.70;99.90
6810;DHT22;3443;48.812;9.112;2022-10-31T14:19:19;17.50;99.90
6810;DHT22;3443;48.812;9.112;2022-10-31T14:21:47;17.50;99.90
6810;DHT22;3443;48.812;9.112;2022-10-31T14:26:56;17.40;99.90
6810;DHT22;3443;48.812;9.112;2022-10-31T14:29:31;17.20;99.90
6810;DHT22;3443;48.812;9.112;2022-10-31T14:32:20;17.20;99.90
6810;DHT22;3443;48.812;9.112;2022-10-31T14:43:50;17.00;99.90
6810;DHT22;3443;48.812;9.112;2022-10-31T14:46:52;17.00;99.90
6810;DHT22;3443;48.812;9.112;2022-10-31T14:51:48;17.10;99.90
6810;DHT22;3443;48.812;9.112;2022-10-31T14:54:19;17.10;99.90
6810;DHT22;3443;48.812;9.112;2022-10-31T14:56:50;17.00;99.90
6810;DHT22;3443;48.812;9.112;2022-10-31T14:59:20;17.00;99.90
6810;DHT22;3443;48.812;9.112;2022-10-31T15:02:00;16.90;99.90
6810;DHT22;3443;48.812;9.112;2022-10-31T15:04:29;17.00;99.90
6810;DHT22;3443;48.812;9.112;2022-10-31T15:07:06;16.90;99.90
6810;DHT22;3443;48.812;9.112;2022-10-31T15:09:35;17.00;99.90
6810;DHT22;3443;48.812;9.112;2022-10-31T15:12:16;16.90;99.90
6810;DHT22;3443;48.812;9.112;2022-10-31T15:14:42;16.80;99.90
6810;DHT22;3443;48.812;9.112;2022-10-31T15:17:11;16.80;99.90
6810;DHT22;3443;48.812;9.112;2022-10-31T15:19:37;16.80;99.90
6810;DHT22;3443;48.812;9.112;2022-10-31T15:22:03;16.60;99.90
6810;DHT22;3443;48.812;9.112;2022-10-31T15:24:38;16.50;99.90
6810;DHT22;3443;48.812;9.112;2022-10-31T15:27:12;16.40;99.90
6810;DHT22;3443;48.812;9.112;2022-10-31T15:29:47;16.30;99.90
6810;DHT22;3443;48.812;9.112;2022-10-31T15:32:22;16.20;99.90
6810;DHT22;3443;48.812;9.112;2022-10-31T15:34:49;16.10;99.90
6810;DHT22;3443;48.812;9.112;2022-10-31T15:37:17;15.90;99.90
6810;DHT22;3443;48.812;9.112;2022-10-31T15:39:44;15.90;99.90
6810;DHT22;3443;48.812;9.112;2022-10-31T15:44:49;15.70;99.90
6810;DHT22;3443;48.812;9.112;2022-10-31T15:47:18;15.60;99.90
6810;DHT22;3443;48.812;9.112;2022-10-31T15:49:55;15.60;99.90
6810;DHT22;3443;48.812;9.112;2022-10-31T15:52:44;15.50;99.90
6810;DHT22;3443;48.812;9.112;2022-10-31T15:57:44;15.20;99.90
6810;DHT22;3443;48.812;9.112;2022-10-31T16:03:03;15.10;99.90
6810;DHT22;3443;48.812;9.112;2022-10-31T16:05:39;15.00;99.90
6810;DHT22;3443;48.812;9.112;2022-10-31T16:11:16;14.90;99.90
6810;DHT22;3443;48.812;9.112;2022-10-31T16:16:20;14.80;99.90
6810;DHT22;3443;48.812;9.112;2022-10-31T16:18:48;14.80;99.90
6810;DHT22;3443;48.812;9.112;2022-10-31T16:21:14;14.70;99.90
6810;DHT22;3443;48.812;9.112;2022-10-31T16:23:45;14.70;99.90
6810;DHT22;3443;48.812;9.112;2022-10-31T16:26:17;14.60;99.90
6810;DHT22;3443;48.812;9.112;2022-10-31T16:28:51;14.50;99.90
6810;DHT22;3443;48.812;9.112;2022-10-31T16:31:43;14.40;99.90
6810;DHT22;3443;48.812;9.112;2022-10-31T16:34:16;14.30;99.90
6810;DHT22;3443;48.812;9.112;2022-10-31T16:36:42;14.30;99.90
6810;DHT22;3443;48.812;9.112;2022-10-31T16:39:09;14.20;99.90
6810;DHT22;3443;48.812;9.112;2022-10-31T16:41:38;14.10;99.90
6810;DHT22;3443;48.812;9.112;2022-10-31T16:44:15;14.10;99.90
6810;DHT22;3443;48.812;9.112;2022-10-31T16:46:42;14.00;99.90
6810;DHT22;3443;48.812;9.112;2022-10-31T16:49:10;13.90;99.90
6810;DHT22;3443;48.812;9.112;2022-10-31T16:51:36;13.90;99.90
6810;DHT22;3443;48.812;9.112;2022-10-31T16:54:02;13.80;99.90
6810;DHT22;3443;48.812;9.112;2022-10-31T16:56:29;13.80;99.90
6810;DHT22;3443;48.812;9.112;2022-10-31T16:58:56;13.80;99.90
6810;DHT22;3443;48.812;9.112;2022-10-31T17:01:22;13.80;99.90
6810;DHT22;3443;48.812;9.112;2022-10-31T17:03:47;13.70;99.90
6810;DHT22;3443;48.812;9.112;2022-10-31T17:06:13;13.70;99.90
6810;DHT22;3443;48.812;9.112;2022-10-31T17:08:39;13.60;99.90
6810;DHT22;3443;48.812;9.112;2022-10-31T17:11:05;13.60;99.90
6810;DHT22;3443;48.812;9.112;2022-10-31T17:13:33;13.60;99.90
6810;DHT22;3443;48.812;9.112;2022-10-31T17:16:02;13.60;99.90
6810;DHT22;3443;48.812;9.112;2022-10-31T17:18:28;13.60;99.90
6810;DHT22;3443;48.812;9.112;2022-10-31T17:20:58;13.60;99.90
6810;DHT22;3443;48.812;9.112;2022-10-31T17:23:24;13.60;99.90
6810;DHT22;3443;48.812;9.112;2022-10-31T17:25:50;13.60;99.90
6810;DHT22;3443;48.812;9.112;2022-10-31T17:28:15;13.60;99.90
6810;DHT22;3443;48.812;9.112;2022-10-31T17:30:42;13.60;99.90
6810;DHT22;3443;48.812;9.112;2022-10-31T17:33:11;13.50;99.90
6810;DHT22;3443;48.812;9.112;2022-10-31T17:35:37;13.50;99.90
6810;DHT22;3443;48.812;9.112;2022-10-31T17:38:03;13.50;99.90
6810;DHT22;3443;48.812;9.112;2022-10-31T17:40:28;13.50;99.90
6810;DHT22;3443;48.812;9.112;2022-10-31T17:42:57;13.50;99.90
6810;DHT22;3443;48.812;9.112;2022-10-31T17:45:24;13.40;99.90
6810;DHT22;3443;48.812;9.112;2022-10-31T17:47:52;13.40;99.90
6810;DHT22;3443;48.812;9.112;2022-10-31T17:50:20;13.40;99.90
6810;DHT22;3443;48.812;9.112;2022-10-31T17:52:46;13.30;99.90
6810;DHT22;3443;48.812;9.112;2022-10-31T17:55:12;13.30;99.90
6810;DHT22;3443;48.812;9.112;2022-10-31T17:57:38;13.20;99.90
6810;DHT22;3443;48.812;9.112;2022-10-31T18:00:06;13.20;99.90
6810;DHT22;3443;48.812;9.112;2022-10-31T18:02:33;13.10;99.90
6810;DHT22;3443;48.812;9.112;2022-10-31T18:04:59;13.10;99.90